Terminal Aerodrome Forecast
Issued by NWS

Home | Current Version | Previous Version | Text Only | Print | Product List | Glossary On
Versions: 1 2 3 4 5 6 7 8 9 10 11 12 13 14 15 16 17 18 19
000
FTUS46 KMFR 222339
TAFRBG
TAF
KRBG 222339Z 2300/2324 VRB03KT P6SM BKN050
     FM230900 00000KT 1/2SM FG OVC002
     FM231600 16003KT 4SM BR SCT005 BKN080
     FM231800 17005KT P6SM -RA OVC030=

USA.gov is the U.S. government's official web portal to all federal, state and local government web resources and services.